Terminal Aerodrome Forecast
Issued by NWS

Home | Current Version | Previous Version | Text Only | Print | Product List | Glossary On
Versions: 1 2 3 4 5 6 7 8 9 10 11 12 13 14 15 16 17 18 19
766
FTUS43 KPAH 042320
TAFCGI
TAF
KCGI 042320Z 0500/0524 29007KT P6SM SCT015 OVC022
      TEMPO 0502/0506 BKN015
     FM050600 VRB03KT 1/2SM FG VV005
     FM051500 07004KT 4SM BR BKN030
     FM051800 11007KT P6SM SCT040=

USA.gov is the U.S. government's official web portal to all federal, state and local government web resources and services.